sensor_id;sensor_type;location;lat;lon;timestamp;P1;durP1;ratioP1;P2;durP2;ratioP2
7432;SDS011;32233;49.500;7.764;2022-12-07T00:01:14;13.73;;;8.03;;
7432;SDS011;32233;49.500;7.764;2022-12-07T00:03:43;14.93;;;8.83;;
7432;SDS011;32233;49.500;7.764;2022-12-07T00:06:12;12.47;;;8.53;;
7432;SDS011;32233;49.500;7.764;2022-12-07T00:08:40;12.70;;;8.60;;
7432;SDS011;32233;49.500;7.764;2022-12-07T00:11:07;13.70;;;9.00;;
7432;SDS011;32233;49.500;7.764;2022-12-07T00:13:36;14.90;;;9.00;;
7432;SDS011;32233;49.500;7.764;2022-12-07T00:16:11;13.03;;;8.73;;
7432;SDS011;32233;49.500;7.764;2022-12-07T00:18:39;12.97;;;8.67;;
7432;SDS011;32233;49.500;7.764;2022-12-07T00:21:08;13.20;;;8.47;;
7432;SDS011;32233;49.500;7.764;2022-12-07T00:23:38;14.60;;;9.00;;
7432;SDS011;32233;49.500;7.764;2022-12-07T00:26:08;14.53;;;9.10;;
7432;SDS011;32233;49.500;7.764;2022-12-07T00:28:39;14.30;;;8.83;;
7432;SDS011;32233;49.500;7.764;2022-12-07T00:31:07;12.37;;;8.33;;
7432;SDS011;32233;49.500;7.764;2022-12-07T00:33:36;13.87;;;8.90;;
7432;SDS011;32233;49.500;7.764;2022-12-07T00:36:08;14.20;;;8.80;;
7432;SDS011;32233;49.500;7.764;2022-12-07T00:38:37;13.60;;;8.10;;
7432;SDS011;32233;49.500;7.764;2022-12-07T00:41:06;13.43;;;8.80;;
7432;SDS011;32233;49.500;7.764;2022-12-07T00:43:44;12.63;;;8.57;;
7432;SDS011;32233;49.500;7.764;2022-12-07T00:46:11;11.40;;;8.10;;
7432;SDS011;32233;49.500;7.764;2022-12-07T00:48:39;12.57;;;8.27;;
7432;SDS011;32233;49.500;7.764;2022-12-07T00:51:06;12.53;;;8.50;;
7432;SDS011;32233;49.500;7.764;2022-12-07T00:53:34;16.10;;;8.97;;
7432;SDS011;32233;49.500;7.764;2022-12-07T00:56:08;15.77;;;9.37;;
7432;SDS011;32233;49.500;7.764;2022-12-07T00:58:37;14.07;;;8.60;;
7432;SDS011;32233;49.500;7.764;2022-12-07T01:01:04;12.90;;;9.30;;
7432;SDS011;32233;49.500;7.764;2022-12-07T01:03:32;14.40;;;9.10;;
7432;SDS011;32233;49.500;7.764;2022-12-07T01:05:59;15.13;;;9.93;;
7432;SDS011;32233;49.500;7.764;2022-12-07T01:08:26;13.87;;;8.83;;
7432;SDS011;32233;49.500;7.764;2022-12-07T01:11:00;15.73;;;9.20;;
7432;SDS011;32233;49.500;7.764;2022-12-07T01:13:31;15.60;;;9.47;;
7432;SDS011;32233;49.500;7.764;2022-12-07T01:16:00;14.57;;;9.10;;
7432;SDS011;32233;49.500;7.764;2022-12-07T01:18:28;14.27;;;9.70;;
7432;SDS011;32233;49.500;7.764;2022-12-07T01:21:12;19.03;;;9.90;;
7432;SDS011;32233;49.500;7.764;2022-12-07T01:23:41;15.53;;;9.63;;
7432;SDS011;32233;49.500;7.764;2022-12-07T01:26:12;13.57;;;9.33;;
7432;SDS011;32233;49.500;7.764;2022-12-07T01:28:41;15.97;;;9.53;;
7432;SDS011;32233;49.500;7.764;2022-12-07T01:31:09;14.33;;;9.13;;
7432;SDS011;32233;49.500;7.764;2022-12-07T01:33:42;15.17;;;9.57;;
7432;SDS011;32233;49.500;7.764;2022-12-07T01:36:20;14.33;;;9.70;;
7432;SDS011;32233;49.500;7.764;2022-12-07T01:38:49;15.10;;;9.23;;
7432;SDS011;32233;49.500;7.764;2022-12-07T01:41:18;13.10;;;8.70;;
7432;SDS011;32233;49.500;7.764;2022-12-07T01:46:33;14.60;;;9.10;;
7432;SDS011;32233;49.500;7.764;2022-12-07T01:49:00;14.93;;;9.80;;
7432;SDS011;32233;49.500;7.764;2022-12-07T01:51:27;14.97;;;9.30;;
7432;SDS011;32233;49.500;7.764;2022-12-07T01:53:54;14.23;;;9.33;;
7432;SDS011;32233;49.500;7.764;2022-12-07T01:56:23;14.77;;;9.37;;
7432;SDS011;32233;49.500;7.764;2022-12-07T01:58:52;16.83;;;8.93;;
7432;SDS011;32233;49.500;7.764;2022-12-07T02:01:22;13.57;;;8.87;;
7432;SDS011;32233;49.500;7.764;2022-12-07T02:03:49;13.27;;;8.47;;
7432;SDS011;32233;49.500;7.764;2022-12-07T02:06:16;12.73;;;8.47;;
7432;SDS011;32233;49.500;7.764;2022-12-07T02:08:47;15.57;;;9.20;;
7432;SDS011;32233;49.500;7.764;2022-12-07T02:11:13;12.53;;;9.00;;
7432;SDS011;32233;49.500;7.764;2022-12-07T02:13:40;13.53;;;8.67;;
7432;SDS011;32233;49.500;7.764;2022-12-07T02:16:17;13.43;;;9.10;;
7432;SDS011;32233;49.500;7.764;2022-12-07T02:19:08;13.37;;;8.73;;
7432;SDS011;32233;49.500;7.764;2022-12-07T02:22:08;14.50;;;9.47;;
7432;SDS011;32233;49.500;7.764;2022-12-07T02:24:57;13.80;;;8.77;;
7432;SDS011;32233;49.500;7.764;2022-12-07T02:27:47;16.67;;;9.50;;
7432;SDS011;32233;49.500;7.764;2022-12-07T02:30:19;15.13;;;9.53;;
7432;SDS011;32233;49.500;7.764;2022-12-07T02:33:07;15.83;;;9.53;;
7432;SDS011;32233;49.500;7.764;2022-12-07T02:35:44;14.10;;;9.30;;
7432;SDS011;32233;49.500;7.764;2022-12-07T02:40:50;17.07;;;9.80;;
7432;SDS011;32233;49.500;7.764;2022-12-07T02:43:23;14.37;;;9.13;;
7432;SDS011;32233;49.500;7.764;2022-12-07T02:45:50;14.53;;;9.63;;
7432;SDS011;32233;49.500;7.764;2022-12-07T02:48:19;16.03;;;9.57;;
7432;SDS011;32233;49.500;7.764;2022-12-07T02:50:51;15.40;;;9.23;;
7432;SDS011;32233;49.500;7.764;2022-12-07T02:53:32;14.27;;;9.27;;
7432;SDS011;32233;49.500;7.764;2022-12-07T02:58:39;14.93;;;8.40;;
7432;SDS011;32233;49.500;7.764;2022-12-07T03:01:34;16.13;;;9.23;;
7432;SDS011;32233;49.500;7.764;2022-12-07T03:10:03;13.90;;;8.97;;
7432;SDS011;32233;49.500;7.764;2022-12-07T03:13:05;13.10;;;9.03;;
7432;SDS011;32233;49.500;7.764;2022-12-07T03:18:51;12.90;;;8.30;;
7432;SDS011;32233;49.500;7.764;2022-12-07T03:21:23;15.00;;;8.77;;
7432;SDS011;32233;49.500;7.764;2022-12-07T03:23:56;15.80;;;9.50;;
7432;SDS011;32233;49.500;7.764;2022-12-07T03:26:30;13.77;;;9.23;;
7432;SDS011;32233;49.500;7.764;2022-12-07T03:29:06;14.70;;;9.03;;
7432;SDS011;32233;49.500;7.764;2022-12-07T03:31:39;16.73;;;9.57;;
7432;SDS011;32233;49.500;7.764;2022-12-07T03:34:30;14.50;;;9.50;;
7432;SDS011;32233;49.500;7.764;2022-12-07T03:37:07;12.37;;;8.40;;
7432;SDS011;32233;49.500;7.764;2022-12-07T03:40:02;16.27;;;9.20;;
7432;SDS011;32233;49.500;7.764;2022-12-07T03:42:30;16.47;;;9.70;;
7432;SDS011;32233;49.500;7.764;2022-12-07T03:44:59;14.10;;;9.10;;
7432;SDS011;32233;49.500;7.764;2022-12-07T03:47:29;13.87;;;9.27;;
7432;SDS011;32233;49.500;7.764;2022-12-07T03:50:02;16.57;;;9.80;;
7432;SDS011;32233;49.500;7.764;2022-12-07T03:55:32;15.00;;;9.60;;
7432;SDS011;32233;49.500;7.764;2022-12-07T03:58:04;15.13;;;9.13;;
7432;SDS011;32233;49.500;7.764;2022-12-07T04:00:36;15.67;;;8.83;;
7432;SDS011;32233;49.500;7.764;2022-12-07T04:03:03;13.80;;;8.80;;
7432;SDS011;32233;49.500;7.764;2022-12-07T04:05:30;13.70;;;9.00;;
7432;SDS011;32233;49.500;7.764;2022-12-07T04:07:56;16.03;;;8.97;;
7432;SDS011;32233;49.500;7.764;2022-12-07T04:10:23;14.53;;;8.83;;
7432;SDS011;32233;49.500;7.764;2022-12-07T04:12:49;15.83;;;9.57;;
7432;SDS011;32233;49.500;7.764;2022-12-07T04:15:16;16.87;;;9.73;;
7432;SDS011;32233;49.500;7.764;2022-12-07T04:17:42;17.47;;;10.23;;
7432;SDS011;32233;49.500;7.764;2022-12-07T04:20:09;17.03;;;9.83;;
7432;SDS011;32233;49.500;7.764;2022-12-07T04:22:36;17.73;;;10.13;;
7432;SDS011;32233;49.500;7.764;2022-12-07T04:25:03;15.47;;;9.60;;
7432;SDS011;32233;49.500;7.764;2022-12-07T04:27:30;17.27;;;10.17;;
7432;SDS011;32233;49.500;7.764;2022-12-07T04:29:57;14.47;;;9.30;;
7432;SDS011;32233;49.500;7.764;2022-12-07T04:32:23;15.13;;;9.60;;
7432;SDS011;32233;49.500;7.764;2022-12-07T04:34:50;17.53;;;10.63;;
7432;SDS011;32233;49.500;7.764;2022-12-07T04:37:21;16.10;;;10.13;;
7432;SDS011;32233;49.500;7.764;2022-12-07T04:39:47;17.43;;;9.73;;
7432;SDS011;32233;49.500;7.764;2022-12-07T04:42:14;16.07;;;9.83;;
7432;SDS011;32233;49.500;7.764;2022-12-07T04:44:40;13.73;;;9.27;;
7432;SDS011;32233;49.500;7.764;2022-12-07T04:47:07;16.87;;;10.00;;
7432;SDS011;32233;49.500;7.764;2022-12-07T04:49:34;15.97;;;9.83;;
7432;SDS011;32233;49.500;7.764;2022-12-07T04:52:00;15.90;;;9.63;;
7432;SDS011;32233;49.500;7.764;2022-12-07T04:54:27;17.63;;;10.47;;
7432;SDS011;32233;49.500;7.764;2022-12-07T04:56:53;15.63;;;9.33;;
7432;SDS011;32233;49.500;7.764;2022-12-07T04:59:20;15.87;;;9.70;;
7432;SDS011;32233;49.500;7.764;2022-12-07T05:01:47;16.67;;;10.00;;
7432;SDS011;32233;49.500;7.764;2022-12-07T05:04:13;16.80;;;9.83;;
7432;SDS011;32233;49.500;7.764;2022-12-07T05:06:42;15.37;;;9.90;;
7432;SDS011;32233;49.500;7.764;2022-12-07T05:09:08;15.30;;;9.70;;
7432;SDS011;32233;49.500;7.764;2022-12-07T05:11:35;15.63;;;9.60;;
7432;SDS011;32233;49.500;7.764;2022-12-07T05:16:51;17.50;;;10.10;;
7432;SDS011;32233;49.500;7.764;2022-12-07T05:19:19;17.77;;;10.63;;
7432;SDS011;32233;49.500;7.764;2022-12-07T05:21:46;15.27;;;9.93;;
7432;SDS011;32233;49.500;7.764;2022-12-07T05:24:14;15.00;;;9.30;;
7432;SDS011;32233;49.500;7.764;2022-12-07T05:26:42;14.63;;;9.53;;
7432;SDS011;32233;49.500;7.764;2022-12-07T05:29:11;13.47;;;9.10;;
7432;SDS011;32233;49.500;7.764;2022-12-07T05:31:40;16.17;;;9.87;;
7432;SDS011;32233;49.500;7.764;2022-12-07T05:34:06;18.80;;;10.20;;
7432;SDS011;32233;49.500;7.764;2022-12-07T05:36:33;15.57;;;10.00;;
7432;SDS011;32233;49.500;7.764;2022-12-07T05:39:00;14.37;;;9.97;;
7432;SDS011;32233;49.500;7.764;2022-12-07T05:41:26;16.53;;;9.77;;
7432;SDS011;32233;49.500;7.764;2022-12-07T05:44:12;17.07;;;10.13;;
7432;SDS011;32233;49.500;7.764;2022-12-07T05:46:38;15.40;;;9.97;;
7432;SDS011;32233;49.500;7.764;2022-12-07T05:49:05;16.43;;;10.03;;
7432;SDS011;32233;49.500;7.764;2022-12-07T05:51:31;16.33;;;10.30;;
7432;SDS011;32233;49.500;7.764;2022-12-07T05:53:58;17.37;;;10.73;;
7432;SDS011;32233;49.500;7.764;2022-12-07T05:56:24;18.70;;;10.63;;
7432;SDS011;32233;49.500;7.764;2022-12-07T05:58:52;20.03;;;11.27;;
7432;SDS011;32233;49.500;7.764;2022-12-07T06:01:38;20.40;;;11.43;;
7432;SDS011;32233;49.500;7.764;2022-12-07T06:04:04;17.83;;;10.67;;
7432;SDS011;32233;49.500;7.764;2022-12-07T06:06:31;18.10;;;10.50;;
7432;SDS011;32233;49.500;7.764;2022-12-07T06:08:57;18.07;;;11.07;;
7432;SDS011;32233;49.500;7.764;2022-12-07T06:11:24;19.27;;;11.63;;
7432;SDS011;32233;49.500;7.764;2022-12-07T06:14:09;19.00;;;11.23;;
7432;SDS011;32233;49.500;7.764;2022-12-07T06:16:35;21.30;;;11.93;;
7432;SDS011;32233;49.500;7.764;2022-12-07T06:19:02;19.77;;;11.80;;
7432;SDS011;32233;49.500;7.764;2022-12-07T06:21:28;18.00;;;11.00;;
7432;SDS011;32233;49.500;7.764;2022-12-07T06:23:55;18.13;;;10.83;;
7432;SDS011;32233;49.500;7.764;2022-12-07T06:26:22;19.30;;;11.13;;
7432;SDS011;32233;49.500;7.764;2022-12-07T06:28:48;20.87;;;12.10;;
7432;SDS011;32233;49.500;7.764;2022-12-07T06:31:15;19.93;;;11.90;;
7432;SDS011;32233;49.500;7.764;2022-12-07T06:33:42;20.53;;;12.40;;
7432;SDS011;32233;49.500;7.764;2022-12-07T06:36:09;19.20;;;11.07;;
7432;SDS011;32233;49.500;7.764;2022-12-07T06:38:36;20.63;;;12.40;;
7432;SDS011;32233;49.500;7.764;2022-12-07T06:41:02;17.70;;;11.10;;
7432;SDS011;32233;49.500;7.764;2022-12-07T06:43:29;22.70;;;12.33;;
7432;SDS011;32233;49.500;7.764;2022-12-07T06:45:56;23.47;;;13.07;;
7432;SDS011;32233;49.500;7.764;2022-12-07T06:48:22;20.57;;;12.57;;
7432;SDS011;32233;49.500;7.764;2022-12-07T06:50:49;19.67;;;12.20;;
7432;SDS011;32233;49.500;7.764;2022-12-07T06:53:20;22.63;;;12.97;;
7432;SDS011;32233;49.500;7.764;2022-12-07T06:55:47;21.00;;;12.60;;
7432;SDS011;32233;49.500;7.764;2022-12-07T06:58:13;20.80;;;12.60;;
7432;SDS011;32233;49.500;7.764;2022-12-07T07:00:40;22.73;;;13.37;;
7432;SDS011;32233;49.500;7.764;2022-12-07T07:03:07;23.50;;;13.53;;
7432;SDS011;32233;49.500;7.764;2022-12-07T07:05:34;23.00;;;13.40;;
7432;SDS011;32233;49.500;7.764;2022-12-07T07:08:00;23.87;;;13.63;;
7432;SDS011;32233;49.500;7.764;2022-12-07T07:10:47;24.93;;;12.37;;
7432;SDS011;32233;49.500;7.764;2022-12-07T07:13:14;22.90;;;13.20;;
7432;SDS011;32233;49.500;7.764;2022-12-07T07:15:40;22.80;;;12.90;;
7432;SDS011;32233;49.500;7.764;2022-12-07T07:18:07;21.73;;;12.43;;
7432;SDS011;32233;49.500;7.764;2022-12-07T07:20:33;25.20;;;14.83;;
7432;SDS011;32233;49.500;7.764;2022-12-07T07:23:00;27.60;;;14.80;;
7432;SDS011;32233;49.500;7.764;2022-12-07T07:25:27;21.57;;;13.90;;
7432;SDS011;32233;49.500;7.764;2022-12-07T07:27:53;21.73;;;13.83;;
7432;SDS011;32233;49.500;7.764;2022-12-07T07:30:20;26.13;;;14.67;;
7432;SDS011;32233;49.500;7.764;2022-12-07T07:32:46;28.03;;;19.00;;
7432;SDS011;32233;49.500;7.764;2022-12-07T07:35:13;24.80;;;14.63;;
7432;SDS011;32233;49.500;7.764;2022-12-07T07:37:40;22.87;;;14.80;;
7432;SDS011;32233;49.500;7.764;2022-12-07T07:40:08;27.50;;;17.43;;
7432;SDS011;32233;49.500;7.764;2022-12-07T07:42:35;25.97;;;16.20;;
7432;SDS011;32233;49.500;7.764;2022-12-07T07:45:02;23.20;;;13.70;;
7432;SDS011;32233;49.500;7.764;2022-12-07T07:47:29;28.83;;;15.17;;
7432;SDS011;32233;49.500;7.764;2022-12-07T07:49:55;24.73;;;13.93;;
7432;SDS011;32233;49.500;7.764;2022-12-07T07:52:23;20.33;;;12.63;;
7432;SDS011;32233;49.500;7.764;2022-12-07T07:54:49;24.43;;;13.23;;
7432;SDS011;32233;49.500;7.764;2022-12-07T07:57:16;23.17;;;13.37;;
7432;SDS011;32233;49.500;7.764;2022-12-07T07:59:43;25.83;;;14.30;;
7432;SDS011;32233;49.500;7.764;2022-12-07T08:02:14;23.73;;;13.30;;
7432;SDS011;32233;49.500;7.764;2022-12-07T08:04:42;22.83;;;13.80;;
7432;SDS011;32233;49.500;7.764;2022-12-07T08:07:09;24.23;;;13.07;;
7432;SDS011;32233;49.500;7.764;2022-12-07T08:09:36;25.77;;;13.57;;
7432;SDS011;32233;49.500;7.764;2022-12-07T08:12:03;22.60;;;13.83;;
7432;SDS011;32233;49.500;7.764;2022-12-07T08:14:30;26.17;;;13.37;;
7432;SDS011;32233;49.500;7.764;2022-12-07T08:16:57;25.07;;;14.33;;
7432;SDS011;32233;49.500;7.764;2022-12-07T08:19:23;23.97;;;13.60;;
7432;SDS011;32233;49.500;7.764;2022-12-07T08:21:50;25.80;;;13.10;;
7432;SDS011;32233;49.500;7.764;2022-12-07T08:24:17;24.53;;;14.20;;
7432;SDS011;32233;49.500;7.764;2022-12-07T08:26:44;27.07;;;15.40;;
7432;SDS011;32233;49.500;7.764;2022-12-07T08:29:10;22.10;;;13.33;;
7432;SDS011;32233;49.500;7.764;2022-12-07T08:31:37;23.73;;;14.07;;
7432;SDS011;32233;49.500;7.764;2022-12-07T08:34:04;24.37;;;13.60;;
7432;SDS011;32233;49.500;7.764;2022-12-07T08:36:30;32.40;;;16.57;;
7432;SDS011;32233;49.500;7.764;2022-12-07T08:38:57;27.07;;;14.03;;
7432;SDS011;32233;49.500;7.764;2022-12-07T08:41:43;22.67;;;14.33;;
7432;SDS011;32233;49.500;7.764;2022-12-07T08:44:10;22.73;;;13.40;;
7432;SDS011;32233;49.500;7.764;2022-12-07T08:46:40;22.83;;;13.63;;
7432;SDS011;32233;49.500;7.764;2022-12-07T08:49:17;23.83;;;14.07;;
7432;SDS011;32233;49.500;7.764;2022-12-07T08:51:51;25.97;;;14.80;;
7432;SDS011;32233;49.500;7.764;2022-12-07T08:54:17;23.00;;;14.30;;
7432;SDS011;32233;49.500;7.764;2022-12-07T08:56:45;24.23;;;13.33;;
7432;SDS011;32233;49.500;7.764;2022-12-07T08:59:17;24.07;;;13.77;;
7432;SDS011;32233;49.500;7.764;2022-12-07T09:01:45;22.93;;;13.43;;
7432;SDS011;32233;49.500;7.764;2022-12-07T09:04:12;23.03;;;13.73;;
7432;SDS011;32233;49.500;7.764;2022-12-07T09:06:38;24.50;;;13.60;;
7432;SDS011;32233;49.500;7.764;2022-12-07T09:09:05;23.83;;;13.83;;
7432;SDS011;32233;49.500;7.764;2022-12-07T09:11:32;23.33;;;13.53;;
7432;SDS011;32233;49.500;7.764;2022-12-07T09:13:59;24.60;;;13.57;;
7432;SDS011;32233;49.500;7.764;2022-12-07T09:16:25;23.60;;;14.17;;
7432;SDS011;32233;49.500;7.764;2022-12-07T09:18:52;23.30;;;13.33;;
7432;SDS011;32233;49.500;7.764;2022-12-07T09:21:19;21.80;;;12.90;;
7432;SDS011;32233;49.500;7.764;2022-12-07T09:23:45;21.40;;;12.90;;
7432;SDS011;32233;49.500;7.764;2022-12-07T09:26:12;22.97;;;13.67;;
7432;SDS011;32233;49.500;7.764;2022-12-07T09:28:38;23.03;;;13.33;;
7432;SDS011;32233;49.500;7.764;2022-12-07T09:31:05;22.40;;;13.30;;
7432;SDS011;32233;49.500;7.764;2022-12-07T09:33:57;22.87;;;13.10;;
7432;SDS011;32233;49.500;7.764;2022-12-07T09:36:26;21.93;;;13.50;;
7432;SDS011;32233;49.500;7.764;2022-12-07T09:38:53;25.67;;;13.13;;
7432;SDS011;32233;49.500;7.764;2022-12-07T09:41:21;23.17;;;13.50;;
7432;SDS011;32233;49.500;7.764;2022-12-07T09:43:48;27.70;;;14.43;;
7432;SDS011;32233;49.500;7.764;2022-12-07T09:46:16;20.10;;;12.90;;
7432;SDS011;32233;49.500;7.764;2022-12-07T09:48:46;22.30;;;12.43;;
7432;SDS011;32233;49.500;7.764;2022-12-07T09:51:21;27.10;;;15.00;;
7432;SDS011;32233;49.500;7.764;2022-12-07T09:53:51;21.77;;;13.33;;
7432;SDS011;32233;49.500;7.764;2022-12-07T09:56:20;22.00;;;13.33;;
7432;SDS011;32233;49.500;7.764;2022-12-07T09:58:48;20.93;;;12.70;;
7432;SDS011;32233;49.500;7.764;2022-12-07T10:01:16;22.60;;;12.97;;
7432;SDS011;32233;49.500;7.764;2022-12-07T10:03:47;21.87;;;12.70;;
7432;SDS011;32233;49.500;7.764;2022-12-07T10:06:17;21.80;;;13.20;;
7432;SDS011;32233;49.500;7.764;2022-12-07T10:08:44;22.23;;;12.67;;
7432;SDS011;32233;49.500;7.764;2022-12-07T10:11:11;23.13;;;13.73;;
7432;SDS011;32233;49.500;7.764;2022-12-07T10:13:38;21.17;;;12.37;;
7432;SDS011;32233;49.500;7.764;2022-12-07T10:16:24;20.80;;;12.37;;
7432;SDS011;32233;49.500;7.764;2022-12-07T10:19:17;21.17;;;12.47;;
7432;SDS011;32233;49.500;7.764;2022-12-07T10:22:02;22.30;;;11.97;;
7432;SDS011;32233;49.500;7.764;2022-12-07T10:24:40;19.20;;;11.33;;
7432;SDS011;32233;49.500;7.764;2022-12-07T10:27:22;20.57;;;11.90;;
7432;SDS011;32233;49.500;7.764;2022-12-07T10:29:55;20.60;;;11.87;;
7432;SDS011;32233;49.500;7.764;2022-12-07T10:32:29;21.07;;;12.30;;
7432;SDS011;32233;49.500;7.764;2022-12-07T10:35:16;17.73;;;11.60;;
7432;SDS011;32233;49.500;7.764;2022-12-07T10:37:53;23.07;;;12.30;;
7432;SDS011;32233;49.500;7.764;2022-12-07T10:40:34;18.43;;;12.00;;
7432;SDS011;32233;49.500;7.764;2022-12-07T10:51:37;18.80;;;11.07;;
7432;SDS011;32233;49.500;7.764;2022-12-07T10:54:12;16.57;;;11.03;;
7432;SDS011;32233;49.500;7.764;2022-12-07T10:56:50;15.57;;;10.20;;
7432;SDS011;32233;49.500;7.764;2022-12-07T11:00:21;20.47;;;10.70;;
7432;SDS011;32233;49.500;7.764;2022-12-07T11:02:25;15.00;;;9.77;;
7432;SDS011;32233;49.500;7.764;2022-12-07T11:11:21;15.60;;;9.63;;
7432;SDS011;32233;49.500;7.764;2022-12-07T11:21:36;14.90;;;8.40;;
7432;SDS011;32233;49.500;7.764;2022-12-07T11:37:51;8.63;;;5.90;;
7432;SDS011;32233;49.500;7.764;2022-12-07T11:40:33;12.03;;;6.27;;
7432;SDS011;32233;49.500;7.764;2022-12-07T11:45:50;9.57;;;6.70;;
7432;SDS011;32233;49.500;7.764;2022-12-07T11:48:31;10.47;;;7.43;;
7432;SDS011;32233;49.500;7.764;2022-12-07T11:51:01;11.40;;;7.67;;
7432;SDS011;32233;49.500;7.764;2022-12-07T12:06:36;14.20;;;8.07;;
7432;SDS011;32233;49.500;7.764;2022-12-07T12:09:19;11.40;;;7.53;;
7432;SDS011;32233;49.500;7.764;2022-12-07T12:20:45;9.00;;;6.60;;
7432;SDS011;32233;49.500;7.764;2022-12-07T12:23:39;11.47;;;6.07;;
7432;SDS011;32233;49.500;7.764;2022-12-07T12:26:22;10.80;;;6.40;;
7432;SDS011;32233;49.500;7.764;2022-12-07T12:28:56;10.03;;;6.70;;
7432;SDS011;32233;49.500;7.764;2022-12-07T12:33:55;15.60;;;7.70;;
7432;SDS011;32233;49.500;7.764;2022-12-07T12:36:25;12.03;;;6.97;;
7432;SDS011;32233;49.500;7.764;2022-12-07T12:51:46;10.63;;;6.00;;
7432;SDS011;32233;49.500;7.764;2022-12-07T13:02:20;8.20;;;5.53;;
7432;SDS011;32233;49.500;7.764;2022-12-07T13:15:40;8.70;;;5.60;;
7432;SDS011;32233;49.500;7.764;2022-12-07T13:26:20;8.60;;;5.53;;
7432;SDS011;32233;49.500;7.764;2022-12-07T13:33:59;13.00;;;7.40;;
7432;SDS011;32233;49.500;7.764;2022-12-07T13:36:27;9.37;;;5.40;;
7432;SDS011;32233;49.500;7.764;2022-12-07T13:41:41;7.00;;;5.20;;
7432;SDS011;32233;49.500;7.764;2022-12-07T13:44:09;8.00;;;4.90;;
7432;SDS011;32233;49.500;7.764;2022-12-07T13:46:57;8.43;;;5.70;;
7432;SDS011;32233;49.500;7.764;2022-12-07T13:49:30;8.83;;;5.30;;
7432;SDS011;32233;49.500;7.764;2022-12-07T13:52:13;9.87;;;5.90;;
7432;SDS011;32233;49.500;7.764;2022-12-07T13:54:44;6.93;;;4.90;;
7432;SDS011;32233;49.500;7.764;2022-12-07T13:57:12;9.37;;;5.50;;
7432;SDS011;32233;49.500;7.764;2022-12-07T13:59:39;8.10;;;5.10;;
7432;SDS011;32233;49.500;7.764;2022-12-07T14:04:51;11.00;;;5.57;;
7432;SDS011;32233;49.500;7.764;2022-12-07T14:09:58;9.50;;;5.60;;
7432;SDS011;32233;49.500;7.764;2022-12-07T14:12:32;6.30;;;5.43;;
7432;SDS011;32233;49.500;7.764;2022-12-07T14:15:02;6.77;;;5.00;;
7432;SDS011;32233;49.500;7.764;2022-12-07T14:17:30;8.03;;;5.10;;
7432;SDS011;32233;49.500;7.764;2022-12-07T14:19:58;8.70;;;5.50;;
7432;SDS011;32233;49.500;7.764;2022-12-07T14:27:48;8.17;;;4.67;;
7432;SDS011;32233;49.500;7.764;2022-12-07T14:30:22;6.03;;;4.23;;
7432;SDS011;32233;49.500;7.764;2022-12-07T14:32:51;6.07;;;4.73;;
7432;SDS011;32233;49.500;7.764;2022-12-07T14:35:20;8.30;;;5.77;;
7432;SDS011;32233;49.500;7.764;2022-12-07T14:37:48;8.10;;;5.30;;
7432;SDS011;32233;49.500;7.764;2022-12-07T14:40:19;8.63;;;5.00;;
7432;SDS011;32233;49.500;7.764;2022-12-07T14:42:49;5.83;;;4.43;;
7432;SDS011;32233;49.500;7.764;2022-12-07T14:45:18;6.63;;;4.67;;
7432;SDS011;32233;49.500;7.764;2022-12-07T14:47:47;6.40;;;4.40;;
7432;SDS011;32233;49.500;7.764;2022-12-07T14:50:35;6.27;;;4.70;;
7432;SDS011;32233;49.500;7.764;2022-12-07T14:53:06;7.63;;;4.97;;
7432;SDS011;32233;49.500;7.764;2022-12-07T14:55:54;7.70;;;4.47;;
7432;SDS011;32233;49.500;7.764;2022-12-07T14:58:20;6.90;;;4.60;;
7432;SDS011;32233;49.500;7.764;2022-12-07T15:00:47;6.33;;;5.07;;
7432;SDS011;32233;49.500;7.764;2022-12-07T15:03:14;6.47;;;5.00;;
7432;SDS011;32233;49.500;7.764;2022-12-07T15:05:40;7.00;;;4.60;;
7432;SDS011;32233;49.500;7.764;2022-12-07T15:08:08;7.57;;;4.50;;
7432;SDS011;32233;49.500;7.764;2022-12-07T15:10:36;7.57;;;4.47;;
7432;SDS011;32233;49.500;7.764;2022-12-07T15:13:05;5.40;;;3.93;;
7432;SDS011;32233;49.500;7.764;2022-12-07T15:15:51;7.43;;;4.10;;
7432;SDS011;32233;49.500;7.764;2022-12-07T15:18:19;6.47;;;4.13;;
7432;SDS011;32233;49.500;7.764;2022-12-07T15:20:47;9.20;;;5.00;;
7432;SDS011;32233;49.500;7.764;2022-12-07T15:23:14;7.17;;;4.87;;
7432;SDS011;32233;49.500;7.764;2022-12-07T15:25:41;9.07;;;5.07;;
7432;SDS011;32233;49.500;7.764;2022-12-07T15:28:09;8.43;;;5.57;;
7432;SDS011;32233;49.500;7.764;2022-12-07T15:30:39;9.13;;;5.53;;
7432;SDS011;32233;49.500;7.764;2022-12-07T15:33:09;7.73;;;5.90;;
7432;SDS011;32233;49.500;7.764;2022-12-07T15:35:39;8.10;;;6.27;;
7432;SDS011;32233;49.500;7.764;2022-12-07T15:38:09;8.77;;;5.97;;
7432;SDS011;32233;49.500;7.764;2022-12-07T15:40:37;7.17;;;5.73;;
7432;SDS011;32233;49.500;7.764;2022-12-07T15:43:03;8.73;;;5.90;;
7432;SDS011;32233;49.500;7.764;2022-12-07T15:45:30;7.17;;;6.13;;
7432;SDS011;32233;49.500;7.764;2022-12-07T15:47:56;8.40;;;6.37;;
7432;SDS011;32233;49.500;7.764;2022-12-07T15:50:43;8.93;;;6.27;;
7432;SDS011;32233;49.500;7.764;2022-12-07T15:53:09;10.53;;;6.30;;
7432;SDS011;32233;49.500;7.764;2022-12-07T15:55:38;8.87;;;7.13;;
7432;SDS011;32233;49.500;7.764;2022-12-07T15:58:06;10.20;;;6.87;;
7432;SDS011;32233;49.500;7.764;2022-12-07T16:00:33;9.20;;;6.87;;
7432;SDS011;32233;49.500;7.764;2022-12-07T16:02:59;11.13;;;6.23;;
7432;SDS011;32233;49.500;7.764;2022-12-07T16:05:26;8.33;;;6.20;;
7432;SDS011;32233;49.500;7.764;2022-12-07T16:07:53;8.33;;;5.60;;
7432;SDS011;32233;49.500;7.764;2022-12-07T16:10:19;9.07;;;6.57;;
7432;SDS011;32233;49.500;7.764;2022-12-07T16:12:46;10.77;;;6.43;;
7432;SDS011;32233;49.500;7.764;2022-12-07T16:15:13;9.50;;;5.73;;
7432;SDS011;32233;49.500;7.764;2022-12-07T16:17:39;10.40;;;6.67;;
7432;SDS011;32233;49.500;7.764;2022-12-07T16:20:06;10.07;;;7.07;;
7432;SDS011;32233;49.500;7.764;2022-12-07T16:22:34;10.23;;;6.43;;
7432;SDS011;32233;49.500;7.764;2022-12-07T16:25:00;8.63;;;5.83;;
7432;SDS011;32233;49.500;7.764;2022-12-07T16:27:28;8.20;;;6.07;;
7432;SDS011;32233;49.500;7.764;2022-12-07T16:29:54;7.03;;;5.43;;
7432;SDS011;32233;49.500;7.764;2022-12-07T16:32:21;12.47;;;6.33;;
7432;SDS011;32233;49.500;7.764;2022-12-07T16:34:48;9.57;;;6.33;;
7432;SDS011;32233;49.500;7.764;2022-12-07T16:37:14;9.00;;;6.33;;
7432;SDS011;32233;49.500;7.764;2022-12-07T16:39:41;19.73;;;10.10;;
7432;SDS011;32233;49.500;7.764;2022-12-07T16:42:07;19.13;;;10.53;;
7432;SDS011;32233;49.500;7.764;2022-12-07T16:44:34;12.77;;;8.10;;
7432;SDS011;32233;49.500;7.764;2022-12-07T16:47:00;12.03;;;7.20;;
7432;SDS011;32233;49.500;7.764;2022-12-07T16:49:27;12.33;;;7.57;;
7432;SDS011;32233;49.500;7.764;2022-12-07T16:51:54;11.57;;;7.47;;
7432;SDS011;32233;49.500;7.764;2022-12-07T16:54:40;12.57;;;8.13;;
7432;SDS011;32233;49.500;7.764;2022-12-07T16:57:07;15.67;;;9.10;;
7432;SDS011;32233;49.500;7.764;2022-12-07T16:59:33;12.77;;;8.70;;
7432;SDS011;32233;49.500;7.764;2022-12-07T17:02:00;12.10;;;8.07;;
7432;SDS011;32233;49.500;7.764;2022-12-07T17:04:26;12.53;;;8.00;;
7432;SDS011;32233;49.500;7.764;2022-12-07T17:06:53;11.37;;;7.67;;
7432;SDS011;32233;49.500;7.764;2022-12-07T17:09:19;12.93;;;7.80;;
7432;SDS011;32233;49.500;7.764;2022-12-07T17:11:47;12.90;;;7.50;;
7432;SDS011;32233;49.500;7.764;2022-12-07T17:14:13;13.83;;;8.27;;
7432;SDS011;32233;49.500;7.764;2022-12-07T17:16:59;11.53;;;7.63;;
7432;SDS011;32233;49.500;7.764;2022-12-07T17:19:27;13.03;;;8.00;;
7432;SDS011;32233;49.500;7.764;2022-12-07T17:21:54;11.57;;;7.93;;
7432;SDS011;32233;49.500;7.764;2022-12-07T17:24:21;9.87;;;7.27;;
7432;SDS011;32233;49.500;7.764;2022-12-07T17:26:48;13.67;;;8.63;;
7432;SDS011;32233;49.500;7.764;2022-12-07T17:29:15;11.77;;;7.20;;